createdAt,value
2023-01-19T00:02:46.169Z,5.70
2023-01-19T00:05:31.199Z,5.93
2023-01-19T00:08:16.017Z,5.98
2023-01-19T00:11:02.003Z,5.39
2023-01-19T00:13:47.288Z,5.29
2023-01-19T00:16:33.479Z,5.29
2023-01-19T00:19:18.493Z,5.28
2023-01-19T00:22:04.502Z,5.26
2023-01-19T00:24:49.664Z,4.94
2023-01-19T00:27:34.506Z,5.04
2023-01-19T00:30:21.896Z,5.29
2023-01-19T00:33:06.829Z,5.13
2023-01-19T00:35:51.833Z,5.07
2023-01-19T00:38:36.686Z,4.93
2023-01-19T00:41:21.551Z,4.61
2023-01-19T00:44:06.450Z,4.53
2023-01-19T00:46:52.633Z,4.50
2023-01-19T00:49:37.959Z,4.38
2023-01-19T00:52:22.922Z,4.38
2023-01-19T00:55:07.751Z,4.59
2023-01-19T00:57:52.628Z,4.36
2023-01-19T01:00:37.522Z,4.14
2023-01-19T01:03:32.907Z,4.34
2023-01-19T01:06:18.097Z,4.33
2023-01-19T01:09:02.915Z,3.89
2023-01-19T01:11:51.466Z,4.02
2023-01-19T01:14:36.638Z,3.89
2023-01-19T01:17:22.671Z,4.04
2023-01-19T01:20:07.952Z,3.78
2023-01-19T01:22:55.357Z,3.42
2023-01-19T01:25:40.322Z,3.31
2023-01-19T01:28:27.527Z,3.33
2023-01-19T01:31:13.739Z,3.39
2023-01-19T01:33:58.750Z,3.42
2023-01-19T01:36:45.979Z,2.76
2023-01-19T01:39:41.236Z,2.94
2023-01-19T01:42:30.173Z,2.93
2023-01-19T01:45:16.559Z,2.96
2023-01-19T01:48:01.681Z,3.11
2023-01-19T01:50:46.581Z,3.13
2023-01-19T01:53:31.324Z,3.12
2023-01-19T01:56:16.279Z,3.14
2023-01-19T01:59:01.118Z,3.26
2023-01-19T02:01:49.048Z,3.30
2023-01-19T02:04:34.107Z,3.38
2023-01-19T02:07:20.106Z,3.43
2023-01-19T02:10:05.346Z,3.55
2023-01-19T02:12:50.360Z,3.66
2023-01-19T02:15:35.238Z,3.61
2023-01-19T02:18:19.985Z,3.55
2023-01-19T02:21:04.701Z,3.37
2023-01-19T02:23:49.621Z,3.37
2023-01-19T02:26:34.565Z,3.45
2023-01-19T02:29:19.497Z,3.64
2023-01-19T02:32:04.243Z,3.63
2023-01-19T02:34:59.407Z,3.64
2023-01-19T02:37:44.712Z,3.62
2023-01-19T02:40:30.678Z,3.48
2023-01-19T02:43:22.637Z,3.40
2023-01-19T02:46:07.956Z,3.63
2023-01-19T02:48:52.974Z,3.82
2023-01-19T02:51:37.803Z,3.48
2023-01-19T02:54:26.836Z,3.39
2023-01-19T02:57:11.949Z,3.60
2023-01-19T02:59:56.758Z,3.58
2023-01-19T03:02:41.718Z,3.74
2023-01-19T03:05:27.780Z,3.73
2023-01-19T03:08:17.379Z,3.83
2023-01-19T03:11:02.652Z,3.59
2023-01-19T03:13:47.453Z,3.88
2023-01-19T03:16:33.618Z,3.92
2023-01-19T03:19:18.787Z,4.04
2023-01-19T03:22:03.529Z,4.01
2023-01-19T03:24:48.491Z,4.22
2023-01-19T03:27:33.225Z,4.16
2023-01-19T03:30:18.008Z,4.35
2023-01-19T03:33:03.241Z,4.29
2023-01-19T03:35:50.618Z,4.32
2023-01-19T03:38:41.215Z,4.19
2023-01-19T03:41:28.329Z,4.24
2023-01-19T03:44:13.372Z,4.56
2023-01-19T03:46:58.335Z,4.37
2023-01-19T03:49:43.256Z,4.33
2023-01-19T03:52:29.262Z,4.26
2023-01-19T03:55:15.599Z,4.44
2023-01-19T03:58:00.873Z,4.26
2023-01-19T04:00:45.718Z,4.31
2023-01-19T04:03:30.617Z,4.01
2023-01-19T04:06:15.626Z,4.27
2023-01-19T04:09:00.487Z,4.02
2023-01-19T04:11:45.395Z,4.02
2023-01-19T04:14:30.300Z,4.21
2023-01-19T04:17:16.420Z,4.19
2023-01-19T04:20:01.695Z,3.88
2023-01-19T04:22:48.968Z,4.26
2023-01-19T04:25:34.164Z,3.72
2023-01-19T04:28:19.233Z,3.60
2023-01-19T04:31:08.048Z,3.75
2023-01-19T04:33:55.545Z,3.88
2023-01-19T04:36:40.643Z,3.88
2023-01-19T04:39:27.358Z,3.87
2023-01-19T04:42:12.565Z,4.09
2023-01-19T04:44:57.434Z,4.23
2023-01-19T04:47:42.357Z,4.41
2023-01-19T04:50:31.115Z,4.57
2023-01-19T04:53:16.486Z,4.60
2023-01-19T04:56:02.517Z,4.60
2023-01-19T04:58:50.121Z,4.55
2023-01-19T05:01:35.102Z,4.63
2023-01-19T05:04:20.050Z,5.15
2023-01-19T05:07:04.935Z,4.97
2023-01-19T05:09:49.851Z,5.13
2023-01-19T05:12:34.690Z,5.01
2023-01-19T05:15:23.375Z,4.89
2023-01-19T05:18:09.821Z,5.17
2023-01-19T05:21:01.971Z,5.00
2023-01-19T05:23:47.111Z,5.29
2023-01-19T05:26:32.024Z,5.42
2023-01-19T05:29:17.052Z,5.18
2023-01-19T05:32:02.045Z,5.49
2023-01-19T05:34:48.687Z,5.38
2023-01-19T05:37:33.863Z,5.53
2023-01-19T05:40:25.507Z,5.51
2023-01-19T05:43:10.628Z,5.80
2023-01-19T05:45:55.689Z,5.67
2023-01-19T05:48:40.483Z,5.65
2023-01-19T05:51:26.602Z,5.81
2023-01-19T05:54:11.821Z,5.99
2023-01-19T05:56:56.904Z,6.11
2023-01-19T05:59:46.614Z,5.90
2023-01-19T06:02:31.835Z,5.67
2023-01-19T06:05:16.753Z,6.18
2023-01-19T06:08:01.763Z,6.04
2023-01-19T06:10:46.684Z,6.16
2023-01-19T06:13:32.860Z,5.87
2023-01-19T06:16:18.893Z,6.04
2023-01-19T06:19:04.107Z,6.20
2023-01-19T06:21:50.664Z,6.07
2023-01-19T06:24:35.845Z,5.97
2023-01-19T06:27:21.227Z,5.94
2023-01-19T06:30:07.853Z,6.35
2023-01-19T06:32:54.087Z,5.97
2023-01-19T06:35:40.645Z,6.00
2023-01-19T06:38:28.685Z,6.18
2023-01-19T06:41:13.899Z,6.11
2023-01-19T06:44:01.726Z,6.35
2023-01-19T06:46:46.619Z,6.13
2023-01-19T06:49:31.555Z,6.26
2023-01-19T06:52:18.687Z,6.25
2023-01-19T06:55:03.693Z,6.12
2023-01-19T06:57:48.611Z,6.28
2023-01-19T07:00:33.974Z,6.39
2023-01-19T07:03:29.355Z,6.33
2023-01-19T07:06:14.416Z,6.34
2023-01-19T07:08:59.286Z,6.36
2023-01-19T07:11:44.180Z,6.04
2023-01-19T07:14:29.133Z,6.01
2023-01-19T07:17:13.930Z,6.24
2023-01-19T07:19:58.902Z,5.96
2023-01-19T07:25:42.738Z,6.48
2023-01-19T07:28:29.607Z,6.53
2023-01-19T07:31:14.970Z,6.63
2023-01-19T07:33:59.813Z,6.73
2023-01-19T07:36:44.708Z,7.06
2023-01-19T07:39:29.627Z,6.80
2023-01-19T07:42:14.416Z,7.30
2023-01-19T07:44:59.420Z,7.16
2023-01-19T07:47:44.241Z,6.62
2023-01-19T07:50:29.170Z,6.58
2023-01-19T07:53:15.230Z,6.98
2023-01-19T07:56:00.443Z,6.89
2023-01-19T07:58:46.570Z,6.74
2023-01-19T08:01:31.882Z,6.42
2023-01-19T08:04:17.163Z,6.64
2023-01-19T08:07:02.076Z,6.93
2023-01-19T08:09:46.796Z,7.17
2023-01-19T08:12:34.273Z,7.46
2023-01-19T08:15:19.307Z,7.12
2023-01-19T08:18:08.168Z,7.13
2023-01-19T08:20:55.714Z,6.99
2023-01-19T08:23:40.886Z,7.65
2023-01-19T08:26:26.250Z,7.41
2023-01-19T08:29:11.184Z,7.74
2023-01-19T08:31:57.295Z,7.30
2023-01-19T08:34:44.707Z,7.27
2023-01-19T08:37:29.674Z,6.95
2023-01-19T08:40:14.563Z,6.36
2023-01-19T08:42:59.917Z,6.49
2023-01-19T08:45:44.876Z,7.25
2023-01-19T08:48:29.780Z,6.42
2023-01-19T08:51:14.586Z,5.99
2023-01-19T08:53:59.565Z,5.86
2023-01-19T08:56:44.534Z,5.27
2023-01-19T08:59:29.415Z,5.08
2023-01-19T09:02:14.321Z,5.06
2023-01-19T09:04:59.063Z,5.00
2023-01-19T09:07:45.899Z,4.79
2023-01-19T09:10:32.769Z,5.28
2023-01-19T09:13:18.020Z,5.12
2023-01-19T09:16:02.788Z,5.13
2023-01-19T09:18:48.939Z,4.88
2023-01-19T09:21:41.604Z,5.13
2023-01-19T09:24:26.736Z,5.31
2023-01-19T09:27:11.532Z,6.06
2023-01-19T09:29:56.488Z,5.99
2023-01-19T09:32:41.652Z,6.18
2023-01-19T09:35:29.724Z,7.14
2023-01-19T09:38:14.779Z,6.90
2023-01-19T09:41:00.844Z,6.07
2023-01-19T09:43:46.158Z,6.39
2023-01-19T09:46:31.238Z,6.23
2023-01-19T09:49:16.046Z,6.16
2023-01-19T09:52:00.869Z,5.69
2023-01-19T09:54:45.670Z,5.81
2023-01-19T09:57:30.452Z,5.58
2023-01-19T10:00:16.568Z,5.66
2023-01-19T10:03:02.183Z,6.15
2023-01-19T10:05:49.464Z,5.87
2023-01-19T10:08:34.469Z,6.11
2023-01-19T10:11:19.421Z,6.08
2023-01-19T10:14:04.305Z,5.74
2023-01-19T10:16:50.486Z,5.56
2023-01-19T10:19:35.640Z,5.77
2023-01-19T10:22:22.484Z,5.94
2023-01-19T10:25:07.694Z,6.13
2023-01-19T10:27:52.460Z,5.81
2023-01-19T10:30:37.431Z,5.57
2023-01-19T10:33:22.295Z,5.58
2023-01-19T10:36:07.114Z,5.92
2023-01-19T10:38:58.162Z,5.49
2023-01-19T10:41:43.311Z,5.56
2023-01-19T10:44:28.400Z,5.48
2023-01-19T10:47:13.330Z,5.76
2023-01-19T10:49:58.204Z,5.78
2023-01-19T10:52:46.068Z,5.78
2023-01-19T10:55:31.224Z,5.59
2023-01-19T10:58:17.184Z,5.27
2023-01-19T11:01:04.306Z,5.72
2023-01-19T11:03:49.491Z,5.71
2023-01-19T11:06:36.120Z,6.01
2023-01-19T11:09:21.405Z,5.73
2023-01-19T11:12:06.228Z,5.75
2023-01-19T11:14:51.140Z,5.89
2023-01-19T11:17:35.959Z,5.83
2023-01-19T11:20:22.139Z,5.74
2023-01-19T11:23:09.203Z,5.76
2023-01-19T11:25:54.159Z,5.87
2023-01-19T11:28:43.615Z,5.88
2023-01-19T11:31:34.410Z,5.72
2023-01-19T11:34:19.620Z,5.61
2023-01-19T11:37:04.513Z,5.86
2023-01-19T11:39:50.557Z,6.40
2023-01-19T11:42:35.763Z,6.68
2023-01-19T11:45:20.640Z,6.27
2023-01-19T11:48:05.391Z,5.62
2023-01-19T11:50:51.549Z,5.50
2023-01-19T11:53:39.669Z,5.87
2023-01-19T11:56:24.748Z,5.86
2023-01-19T11:59:09.575Z,5.55
2023-01-19T12:01:58.811Z,5.64
2023-01-19T12:04:43.900Z,6.00
2023-01-19T12:07:28.816Z,5.97
2023-01-19T12:10:13.610Z,5.37
2023-01-19T12:12:58.397Z,5.47
2023-01-19T12:15:43.294Z,5.64
2023-01-19T12:18:30.024Z,5.03
2023-01-19T12:21:17.554Z,5.20
2023-01-19T12:24:02.603Z,4.92
2023-01-19T12:26:47.525Z,4.78
2023-01-19T12:29:32.554Z,4.82
2023-01-19T12:32:17.423Z,4.76
2023-01-19T12:35:04.186Z,4.45
2023-01-19T12:37:49.199Z,4.67
2023-01-19T12:40:34.034Z,4.77
2023-01-19T12:43:18.911Z,5.20
2023-01-19T12:46:05.040Z,5.26
2023-01-19T12:48:51.358Z,5.12
2023-01-19T12:51:36.411Z,4.72
2023-01-19T12:54:21.364Z,4.87
2023-01-19T12:57:06.224Z,4.92
2023-01-19T12:59:52.397Z,5.24
2023-01-19T13:02:39.055Z,4.61
2023-01-19T13:05:24.066Z,4.86
2023-01-19T13:08:08.923Z,4.87
2023-01-19T13:10:53.727Z,5.18
2023-01-19T13:13:39.786Z,4.52
2023-01-19T13:16:24.959Z,4.39
2023-01-19T13:19:09.800Z,4.19
2023-01-19T13:21:55.900Z,4.70
2023-01-19T13:24:41.093Z,4.22
2023-01-19T13:27:26.080Z,4.27
2023-01-19T13:30:12.364Z,4.69
2023-01-19T13:32:59.827Z,4.90
2023-01-19T13:35:45.008Z,4.61
2023-01-19T13:38:29.797Z,4.19
2023-01-19T13:41:14.716Z,4.11
2023-01-19T13:43:59.685Z,4.25
2023-01-19T13:46:44.611Z,4.11
2023-01-19T13:49:31.845Z,4.25
2023-01-19T13:52:16.894Z,4.76
2023-01-19T13:55:03.248Z,4.38
2023-01-19T13:57:48.751Z,4.31
2023-01-19T14:00:34.905Z,4.52
2023-01-19T14:03:21.548Z,4.80
2023-01-19T14:06:06.716Z,4.55
2023-01-19T14:08:54.640Z,4.64
2023-01-19T14:11:41.036Z,4.39
2023-01-19T14:14:26.086Z,4.53
2023-01-19T14:17:10.956Z,4.16
2023-01-19T14:19:57.157Z,4.13
2023-01-19T14:22:42.375Z,4.28
2023-01-19T14:25:27.344Z,4.48
2023-01-19T14:28:13.910Z,4.48
2023-01-19T14:30:59.307Z,4.16
2023-01-19T14:33:44.621Z,4.57
2023-01-19T14:36:29.379Z,4.32
2023-01-19T14:39:18.645Z,4.35
2023-01-19T14:42:04.898Z,4.13
2023-01-19T14:44:49.973Z,3.76
2023-01-19T14:47:34.853Z,3.82
2023-01-19T14:50:23.430Z,4.21
2023-01-19T14:53:08.609Z,4.23
2023-01-19T14:55:53.595Z,4.03
2023-01-19T14:58:38.449Z,3.84
2023-01-19T15:01:24.642Z,4.12
2023-01-19T15:04:09.816Z,3.95
2023-01-19T15:06:54.836Z,3.84
2023-01-19T15:09:39.669Z,3.95
2023-01-19T15:12:25.838Z,4.07
2023-01-19T15:15:11.111Z,3.97
2023-01-19T15:17:56.315Z,3.87
2023-01-19T15:20:41.447Z,3.84
2023-01-19T15:23:26.243Z,3.87
2023-01-19T15:26:11.160Z,3.98
2023-01-19T15:28:56.187Z,4.06
2023-01-19T15:31:41.017Z,4.14
2023-01-19T15:34:25.979Z,4.10
2023-01-19T15:37:11.027Z,4.12
2023-01-19T15:39:55.881Z,4.12
2023-01-19T15:42:40.728Z,4.18
2023-01-19T15:45:25.724Z,4.02
2023-01-19T15:48:12.297Z,4.21
2023-01-19T15:50:57.306Z,4.00
2023-01-19T15:53:45.204Z,3.98
2023-01-19T15:56:30.325Z,4.27
2023-01-19T15:59:18.138Z,4.01
2023-01-19T16:02:03.424Z,3.74
2023-01-19T16:04:50.822Z,3.70
2023-01-19T16:07:35.959Z,3.67
2023-01-19T16:10:24.199Z,3.75
2023-01-19T16:13:09.322Z,3.98
2023-01-19T16:15:54.239Z,3.93
2023-01-19T16:18:40.287Z,3.94
2023-01-19T16:21:25.366Z,4.17
2023-01-19T16:24:10.372Z,4.06
2023-01-19T16:26:57.597Z,4.84
2023-01-19T16:29:42.833Z,5.21
2023-01-19T16:32:27.637Z,5.50
2023-01-19T16:35:12.434Z,6.10
2023-01-19T16:37:58.755Z,6.64
2023-01-19T16:40:47.712Z,6.73
2023-01-19T16:43:33.122Z,7.35
2023-01-19T16:46:18.112Z,7.12
2023-01-19T16:49:02.828Z,7.25
2023-01-19T16:51:48.893Z,7.39
2023-01-19T16:54:35.218Z,7.40
2023-01-19T16:57:22.159Z,8.08
2023-01-19T17:00:07.411Z,7.77
2023-01-19T17:02:52.233Z,8.07
2023-01-19T17:05:37.132Z,8.39
2023-01-19T17:08:22.009Z,8.51
2023-01-19T17:11:08.275Z,9.10
2023-01-19T17:13:54.573Z,8.69
2023-01-19T17:16:39.877Z,8.59
2023-01-19T17:19:24.676Z,8.89
2023-01-19T17:22:09.320Z,8.42
2023-01-19T17:24:54.207Z,8.37
2023-01-19T17:27:41.296Z,8.28
2023-01-19T17:30:27.756Z,8.05
2023-01-19T17:33:13.046Z,8.21
2023-01-19T17:35:57.745Z,8.72
2023-01-19T17:38:42.623Z,9.13
2023-01-19T17:41:27.589Z,9.20
2023-01-19T17:44:12.483Z,9.46
2023-01-19T17:46:59.831Z,10.00
2023-01-19T17:49:49.016Z,9.76
2023-01-19T17:52:35.385Z,9.95
2023-01-19T17:55:20.937Z,10.70
2023-01-19T17:58:06.083Z,10.83
2023-01-19T18:00:52.884Z,10.51
2023-01-19T18:03:38.008Z,10.47
2023-01-19T18:06:24.690Z,10.02
2023-01-19T18:09:09.836Z,9.99
2023-01-19T18:11:54.608Z,9.64
2023-01-19T18:14:41.894Z,9.79
2023-01-19T18:17:27.088Z,9.67
2023-01-19T18:20:12.080Z,10.16
2023-01-19T18:22:57.273Z,10.20
2023-01-19T18:25:44.899Z,9.78
2023-01-19T18:28:30.089Z,10.36
2023-01-19T18:31:15.241Z,10.47
2023-01-19T18:34:00.490Z,10.46
2023-01-19T18:36:46.020Z,10.44
2023-01-19T18:39:30.917Z,10.12
2023-01-19T18:42:15.919Z,10.38
2023-01-19T18:45:00.982Z,10.53
2023-01-19T18:47:45.918Z,10.35
2023-01-19T18:50:33.152Z,10.40
2023-01-19T18:53:21.170Z,9.79
2023-01-19T18:56:06.338Z,9.57
2023-01-19T18:58:51.272Z,9.50
2023-01-19T19:01:38.482Z,8.71
2023-01-19T19:04:23.598Z,7.95
2023-01-19T19:07:10.394Z,7.66
2023-01-19T19:09:55.599Z,7.77
2023-01-19T19:12:41.753Z,7.82
2023-01-19T19:15:28.089Z,8.10
2023-01-19T19:18:13.724Z,7.94
2023-01-19T19:20:58.989Z,7.60
2023-01-19T19:23:43.799Z,8.43
2023-01-19T19:26:28.766Z,8.85
2023-01-19T19:29:13.527Z,8.41
2023-01-19T19:32:00.119Z,7.96
2023-01-19T19:34:45.174Z,8.09
2023-01-19T19:37:32.507Z,7.77
2023-01-19T19:40:17.585Z,7.67
2023-01-19T19:43:02.380Z,7.96
2023-01-19T19:45:47.335Z,8.60
2023-01-19T19:48:32.151Z,8.98
2023-01-19T19:51:18.763Z,9.91
2023-01-19T19:54:04.341Z,9.76
2023-01-19T19:56:49.198Z,9.69
2023-01-19T19:59:34.113Z,9.67
2023-01-19T20:02:18.964Z,10.02
2023-01-19T20:05:03.957Z,8.98
2023-01-19T20:07:48.822Z,8.13
2023-01-19T20:10:36.589Z,6.87
2023-01-19T20:13:22.992Z,6.99
2023-01-19T20:16:12.351Z,6.60
2023-01-19T20:18:57.353Z,6.37
2023-01-19T20:21:42.265Z,6.32
2023-01-19T20:24:27.111Z,6.05
2023-01-19T20:27:12.112Z,5.90
2023-01-19T20:29:56.945Z,6.02
2023-01-19T20:32:41.909Z,8.48
2023-01-19T20:35:26.814Z,8.22
2023-01-19T20:38:11.565Z,7.45
2023-01-19T20:40:58.803Z,6.85
2023-01-19T20:43:44.083Z,6.73
2023-01-19T20:46:29.435Z,6.50
2023-01-19T20:49:14.266Z,6.85
2023-01-19T20:51:59.201Z,6.92
2023-01-19T20:54:44.103Z,7.45
2023-01-19T20:57:28.942Z,7.38
2023-01-19T21:00:17.045Z,7.22
2023-01-19T21:03:02.137Z,7.22
2023-01-19T21:05:47.067Z,7.48
2023-01-19T21:08:36.378Z,7.15
2023-01-19T21:11:22.692Z,6.86
2023-01-19T21:14:11.474Z,6.36
2023-01-19T21:16:56.652Z,5.42
2023-01-19T21:19:41.737Z,5.79
2023-01-19T21:22:26.577Z,5.32
2023-01-19T21:25:14.112Z,4.88
2023-01-19T21:28:01.779Z,5.09
2023-01-19T21:30:46.907Z,5.80
2023-01-19T21:33:31.779Z,5.74
2023-01-19T21:36:17.629Z,5.93
2023-01-19T21:39:02.792Z,5.51
2023-01-19T21:41:47.641Z,5.23
2023-01-19T21:44:32.663Z,5.10
2023-01-19T21:47:17.625Z,4.97
2023-01-19T21:50:02.518Z,4.45
2023-01-19T21:52:47.437Z,4.84
2023-01-19T21:55:32.317Z,4.85
2023-01-19T21:58:19.223Z,4.73
2023-01-19T22:01:04.544Z,4.75
2023-01-19T22:03:49.859Z,4.98
2023-01-19T22:06:34.811Z,5.13
2023-01-19T22:09:22.671Z,4.98
2023-01-19T22:12:09.164Z,4.68
2023-01-19T22:14:54.470Z,5.21
2023-01-19T22:17:39.310Z,4.90
2023-01-19T22:20:24.192Z,5.19
2023-01-19T22:23:11.373Z,5.03
2023-01-19T22:25:59.390Z,5.02
2023-01-19T22:28:44.673Z,5.07
2023-01-19T22:31:29.595Z,4.94
2023-01-19T22:34:14.994Z,5.28
2023-01-19T22:36:59.766Z,5.41
2023-01-19T22:39:44.854Z,5.39
2023-01-19T22:42:29.830Z,5.50
2023-01-19T22:45:15.047Z,5.78
2023-01-19T22:48:00.566Z,6.41
2023-01-19T22:50:45.444Z,7.74
2023-01-19T22:53:30.328Z,7.56
2023-01-19T22:56:15.137Z,8.05
2023-01-19T22:59:00.013Z,7.91
2023-01-19T23:01:44.991Z,7.28
2023-01-19T23:04:30.128Z,7.08
2023-01-19T23:07:17.348Z,7.03
2023-01-19T23:10:04.691Z,6.99
2023-01-19T23:12:51.651Z,7.29
2023-01-19T23:15:36.867Z,7.42
2023-01-19T23:18:22.899Z,7.54
2023-01-19T23:21:12.656Z,7.54
2023-01-19T23:23:59.640Z,7.49
2023-01-19T23:26:44.696Z,8.04
2023-01-19T23:29:39.898Z,7.58
2023-01-19T23:32:26.207Z,7.26
2023-01-19T23:35:11.887Z,7.03
2023-01-19T23:37:57.038Z,6.80
2023-01-19T23:40:41.921Z,6.64
2023-01-19T23:43:26.871Z,6.81
2023-01-19T23:46:11.802Z,6.89
2023-01-19T23:48:59.541Z,6.64
2023-01-19T23:51:44.667Z,7.31
2023-01-19T23:54:29.571Z,7.26
2023-01-19T23:57:14.528Z,7.60
2023-01-19T23:59:59.288Z,7.56
